Weather reports worldwide

Advertisment
Reinosa, Spain (8032): temperature & dewpoint: 10.07.2018 18:00:00 - 16.07.2018 18:00:00 (CEST)Reinosa, Spain (8032): wind speed & gusts: 10.07.2018 18:00:00 - 16.07.2018 18:00:00 (CEST)Reinosa, Spain (8032): wind direction: 10.07.2018 18:00:00 - 16.07.2018 18:00:00 (CEST)Reinosa, Spain (8032): precipitation: 10.07.2018 18:00:00 - 16.07.2018 18:00:00 (CEST)
Date & Time tt [°C] td [°C] ff [km/h] ff [kn] fx [km/h] fx [kn] dd rr [mm]
16.07.2018 18:00:00 - - - - - - - -
16.07.2018 17:00:00 17,8 13,1 10 5 23 12 E 0,0
16.07.2018 16:00:00 19,1 12,8 13 7 34 19 ENE 0,0
16.07.2018 15:00:00 20,0 12,5 14 8 31 17 NNW 0,0
16.07.2018 14:00:00 19,4 13,4 7 4 37 20 NE -
16.07.2018 13:00:00 17,6 13,0 25 13 35 19 NNW 0,0
16.07.2018 12:00:00 16,1 11,7 8 4 15 8 ENE 0,0
16.07.2018 11:00:00 15,2 11,2 4 2 16 9 NNE 0,0
16.07.2018 10:00:00 14,7 11,9 4 2 10 5 E 0,0
16.07.2018 09:00:00 14,2 12,2 4 2 12 7 SSE 0,0
16.07.2018 08:00:00 13,1 11,3 6 3 11 6 SE -
16.07.2018 07:00:00 13,3 9,3 3 2 9 5 NE 0,0
16.07.2018 06:00:00 13,3 10,3 1 0 17 9 SE 0,0
16.07.2018 05:00:00 13,5 9,7 12 6 19 11 WNW 0,0
16.07.2018 04:00:00 13,4 12,0 2 1 15 8 WSW 0,0
16.07.2018 03:00:00 14,2 12,1 6 3 23 12 NW 0,0
16.07.2018 02:00:00 15,1 13,0 8 5 20 11 NNW -
16.07.2018 01:00:00 15,6 13,3 6 4 16 8 NNW 0,0
16.07.2018 00:00:00 15,6 13,3 8 5 21 12 NNW 0,0
15.07.2018 23:00:00 15,9 13,8 5 3 - - N 0,0
15.07.2018 22:00:00 16,2 13,7 6 3 - - NNW 0,0
15.07.2018 21:00:00 17,1 14,3 6 3 - - NW 0,0
15.07.2018 20:00:00 17,0 13,4 11 6 23 13 WNW -
15.07.2018 19:00:00 14,5 12,8 15 8 70 38 W 0,0
15.07.2018 18:00:00 18,9 14,8 16 9 30 16 N 0,0
15.07.2018 17:00:00 19,7 16,7 9 5 34 18 W 0,0
15.07.2018 16:00:00 20,1 14,7 19 10 34 18 NE 0,0
15.07.2018 15:00:00 22,5 15,6 13 7 27 14 ENE 0,0
15.07.2018 14:00:00 23,1 15,2 8 4 21 11 ENE -
15.07.2018 13:00:00 22,5 15,1 8 4 18 10 ENE 0,0
15.07.2018 12:00:00 20,9 14,5 7 4 15 8 ENE 0,0
15.07.2018 11:00:00 20,0 15,3 5 3 10 5 E 0,0
15.07.2018 10:00:00 17,9 14,8 1 0 5 3 NNE 0,0
15.07.2018 09:00:00 15,9 14,4 2 1 5 3 SSW 0,0
15.07.2018 08:00:00 14,5 13,4 2 1 6 4 W -
15.07.2018 07:00:00 13,7 12,6 1 1 5 3 SSW 0,0
15.07.2018 06:00:00 13,4 12,3 0 0 8 4 WNW 0,0
15.07.2018 05:00:00 14,0 12,8 0 0 10 5 N 0,0
15.07.2018 04:00:00 14,9 13,8 3 2 10 5 W 0,0
15.07.2018 03:00:00 16,1 15,0 2 1 14 8 WNW 0,0
15.07.2018 02:00:00 15,4 13,8 5 3 12 7 E -
15.07.2018 01:00:00 17,0 15,9 5 3 19 11 NW 0,0
15.07.2018 00:00:00 17,5 16,4 3 2 14 8 ENE 0,0
14.07.2018 23:00:00 17,4 16,2 8 5 16 9 ENE 0,0
14.07.2018 22:00:00 18,0 16,6 8 4 12 6 ESE 0,0
14.07.2018 21:00:00 19,7 17,9 3 1 23 13 SE 0,0
14.07.2018 20:00:00 18,9 17,2 14 8 29 16 NE -
14.07.2018 19:00:00 21,6 17,4 15 8 26 14 ENE 0,0
14.07.2018 18:00:00 23,1 17,5 13 7 26 14 ENE 0,0
14.07.2018 17:00:00 23,3 17,1 18 10 28 15 E 0,0
14.07.2018 16:00:00 25,2 17,6 14 8 26 14 ENE 0,0
14.07.2018 15:00:00 25,5 17,1 8 4 22 12 NE 0,0
14.07.2018 14:00:00 24,2 15,2 9 5 19 10 E -
14.07.2018 13:00:00 23,6 15,3 6 3 16 9 ENE 0,0
14.07.2018 12:00:00 21,9 14,0 4 2 14 8 NE 0,0
14.07.2018 11:00:00 20,4 12,8 4 2 9 5 ENE 0,0
14.07.2018 10:00:00 17,3 13,3 1 0 4 2 NNE 0,0
14.07.2018 09:00:00 15,0 12,8 0 0 0 0 N 0,0
14.07.2018 08:00:00 12,5 11,1 3 1 11 6 NW -
14.07.2018 07:00:00 12,2 10,8 5 3 12 6 SW 0,0
14.07.2018 06:00:00 11,4 10,3 3 1 9 5 SW 0,0
14.07.2018 05:00:00 11,5 10,4 2 1 9 5 S 0,0
14.07.2018 04:00:00 12,0 10,9 4 2 9 5 W 0,0
14.07.2018 03:00:00 12,3 11,2 6 3 9 5 WNW 0,0
14.07.2018 02:00:00 14,2 12,7 4 2 10 5 SSE -
14.07.2018 01:00:00 15,0 13,2 8 4 26 14 NNW 0,0
14.07.2018 00:00:00 16,1 14,2 5 3 20 11 ESE 0,0
13.07.2018 23:00:00 17,3 14,2 7 4 26 14 E 0,1
13.07.2018 22:00:00 17,6 14,9 19 10 32 18 NW 0,0
13.07.2018 21:00:00 17,6 15,8 4 2 14 8 SE 0,0
13.07.2018 20:00:00 18,9 16,9 5 3 14 8 NNE -
13.07.2018 19:00:00 20,1 16,1 4 2 21 11 E 0,0
13.07.2018 18:00:00 22,9 15,3 13 7 29 16 ENE 0,0
13.07.2018 17:00:00 24,7 15,3 9 5 30 16 ENE 0,0
13.07.2018 16:00:00 23,9 15,9 17 9 31 17 ENE 0,0
13.07.2018 15:00:00 24,4 14,5 7 4 21 11 NE 0,0
13.07.2018 14:00:00 23,1 12,4 11 6 21 12 E -
13.07.2018 13:00:00 22,2 11,9 6 3 14 8 ENE 0,0
13.07.2018 12:00:00 20,9 11,2 3 2 - - ENE -
13.07.2018 11:00:00 17,7 11,7 3 2 - - N -
13.07.2018 10:00:00 15,9 11,9 0 0 - - E -
13.07.2018 09:00:00 13,7 12,2 2 1 - - SSE -
13.07.2018 08:00:00 10,6 9,6 3 2 - - W -
13.07.2018 07:00:00 9,3 8,1 1 0 - - W -
13.07.2018 06:00:00 10,9 9,4 3 1 - - WSW -
13.07.2018 05:00:00 12,0 10,5 4 2 - - SW -
13.07.2018 04:00:00 11,9 10,8 5 3 - - WSW -
13.07.2018 03:00:00 11,7 10,4 4 2 - - WNW -
13.07.2018 02:00:00 13,6 12,0 1 1 - - W -
13.07.2018 01:00:00 15,0 12,6 5 3 - - W -
13.07.2018 00:00:00 15,4 13,6 9 5 - - NE -
12.07.2018 23:00:00 15,8 13,9 7 4 - - NE -
12.07.2018 22:00:00 15,7 13,8 8 4 - - ENE -
12.07.2018 21:00:00 17,9 13,4 10 5 - - ENE -
12.07.2018 20:00:00 19,5 13,7 8 4 - - ENE -
12.07.2018 19:00:00 20,5 12,2 4 2 - - NNW -
12.07.2018 18:00:00 18,6 13,3 13 7 - - E -
12.07.2018 17:00:00 20,2 13,7 9 5 - - ENE -
12.07.2018 16:00:00 19,8 11,8 10 5 - - ENE -
12.07.2018 15:00:00 20,8 12,5 8 4 - - NE -
12.07.2018 14:00:00 20,1 12,6 11 6 - - E -
12.07.2018 13:00:00 18,3 12,3 8 4 - - ENE -
12.07.2018 12:00:00 17,9 12,7 10 5 - - NE -
12.07.2018 11:00:00 - - - - - - - -
12.07.2018 10:00:00 - - - - - - - -
12.07.2018 09:00:00 13,7 11,9 1 1 - - SSW -
12.07.2018 08:00:00 12,7 11,6 2 1 - - ESE -
12.07.2018 07:00:00 12,5 10,9 2 1 - - SSE -
12.07.2018 06:00:00 13,1 10,4 13 7 - - NW -
12.07.2018 05:00:00 12,9 11,8 5 3 - - NW -
12.07.2018 04:00:00 13,3 12,2 3 2 - - S -
12.07.2018 03:00:00 13,5 11,9 2 1 - - ESE -
12.07.2018 02:00:00 13,4 11,7 2 1 - - SW -
12.07.2018 01:00:00 13,3 11,3 5 3 - - E -
12.07.2018 00:00:00 13,6 11,0 9 5 - - WNW -
11.07.2018 23:00:00 14,3 10,5 9 5 - - NW -
11.07.2018 22:00:00 15,3 13,0 8 4 - - WNW -
11.07.2018 21:00:00 16,9 12,8 2 1 - - N -
11.07.2018 20:00:00 17,5 13,7 11 6 - - NE -
11.07.2018 19:00:00 19,3 13,3 13 7 - - NW -
11.07.2018 18:00:00 19,1 13,1 5 3 - - WNW -
11.07.2018 17:00:00 17,4 12,3 4 2 - - SSE -
11.07.2018 16:00:00 15,6 13,3 3 1 - - E -
11.07.2018 15:00:00 15,2 12,3 5 3 - - SE -
11.07.2018 14:00:00 16,2 8,9 6 3 - - ESE -
11.07.2018 13:00:00 17,2 10,0 7 4 - - N -
11.07.2018 12:00:00 18,1 8,9 6 3 - - WNW -
11.07.2018 11:00:00 18,8 9,8 8 4 - - NE -
11.07.2018 10:00:00 17,0 10,2 4 2 - - ENE -
11.07.2018 09:00:00 13,5 9,9 1 1 - - SSE -
11.07.2018 08:00:00 10,0 7,6 1 1 - - W -
11.07.2018 07:00:00 8,5 6,4 7 4 - - W -
11.07.2018 06:00:00 9,3 7,6 2 1 - - ESE -
11.07.2018 05:00:00 9,2 7,8 5 3 - - WNW -
11.07.2018 04:00:00 9,4 7,8 5 3 - - W -
11.07.2018 03:00:00 11,4 10,2 3 2 - - S -
11.07.2018 02:00:00 11,5 10,5 1 1 - - W -
11.07.2018 01:00:00 11,1 9,8 4 2 - - WNW -
11.07.2018 00:00:00 13,4 11,8 1 1 - - NNW -
10.07.2018 23:00:00 15,4 12,8 8 4 - - ENE -
10.07.2018 22:00:00 16,9 12,8 0 0 - - SSW -
10.07.2018 21:00:00 18,6 13,1 1 1 - - E -
10.07.2018 20:00:00 19,9 13,6 7 4 - - NE -
10.07.2018 19:00:00 19,5 13,5 10 5 - - ENE -
10.07.2018 18:00:00 19,5 12,7 16 9 - - ENE -

tt = temperature
td = dewpoint
ff = wind speed
fx = gusts
dd = wind direction
rr = precipitation

Next stations